createdAt,value
2022-12-27T00:01:38.236Z,49.42
2022-12-27T00:04:06.780Z,49.20
2022-12-27T00:06:38.338Z,49.72
2022-12-27T00:09:07.666Z,57.50
2022-12-27T00:11:35.919Z,53.42
2022-12-27T00:14:05.420Z,54.80
2022-12-27T00:16:35.674Z,52.38
2022-12-27T00:19:03.926Z,50.53
2022-12-27T00:21:32.317Z,49.05
2022-12-27T00:24:02.082Z,49.53
2022-12-27T00:26:31.796Z,55.38
2022-12-27T00:29:00.437Z,53.83
2022-12-27T00:31:30.019Z,55.72
2022-12-27T00:34:00.708Z,52.35
2022-12-27T00:36:30.252Z,54.22
2022-12-27T00:38:59.527Z,45.65
2022-12-27T00:41:28.557Z,43.90
2022-12-27T00:43:57.166Z,45.53
2022-12-27T00:46:25.832Z,47.17
2022-12-27T00:48:55.510Z,36.55
2022-12-27T00:51:25.694Z,32.47
2022-12-27T00:53:54.462Z,35.47
2022-12-27T00:56:24.424Z,35.50
2022-12-27T00:58:53.871Z,32.90
2022-12-27T01:01:23.199Z,29.48
2022-12-27T01:03:51.831Z,29.15
2022-12-27T01:06:21.079Z,28.05
2022-12-27T01:08:52.052Z,30.85
2022-12-27T01:11:20.677Z,25.15
2022-12-27T01:13:52.078Z,30.08
2022-12-27T01:16:21.538Z,30.13
2022-12-27T01:18:50.943Z,27.00
2022-12-27T01:21:20.902Z,26.58
2022-12-27T01:23:50.891Z,24.30
2022-12-27T01:26:20.745Z,29.42
2022-12-27T01:28:49.699Z,26.45
2022-12-27T01:31:20.459Z,27.98
2022-12-27T01:33:49.393Z,26.95
2022-12-27T01:36:20.843Z,27.88
2022-12-27T01:38:51.279Z,28.70
2022-12-27T01:41:39.106Z,26.13
2022-12-27T01:44:29.611Z,30.48
2022-12-27T01:46:58.195Z,27.20
2022-12-27T01:49:26.964Z,30.05
2022-12-27T01:51:55.752Z,29.77
2022-12-27T01:54:26.006Z,30.02
2022-12-27T01:56:57.970Z,27.40
2022-12-27T01:59:26.880Z,30.88
2022-12-27T02:01:55.618Z,27.98
2022-12-27T02:04:25.547Z,31.23
2022-12-27T02:06:54.161Z,31.77
2022-12-27T02:09:25.006Z,35.38
2022-12-27T02:11:57.097Z,34.97
2022-12-27T02:14:28.733Z,33.72
2022-12-27T02:16:58.860Z,36.38
2022-12-27T02:19:33.689Z,38.00
2022-12-27T02:22:15.390Z,41.67
2022-12-27T02:24:50.015Z,38.50
2022-12-27T02:27:26.116Z,39.10
2022-12-27T02:29:59.337Z,42.00
2022-12-27T02:32:31.321Z,35.20
2022-12-27T02:35:03.344Z,38.95
2022-12-27T02:37:33.582Z,44.40
2022-12-27T02:40:22.717Z,37.28
2022-12-27T02:43:08.805Z,30.33
2022-12-27T02:45:57.484Z,29.65
2022-12-27T02:48:43.049Z,32.10
2022-12-27T02:51:35.363Z,30.85
2022-12-27T02:54:10.256Z,29.92
2022-12-27T02:57:00.876Z,30.63
2022-12-27T02:59:38.216Z,34.45
2022-12-27T03:02:29.125Z,32.78
2022-12-27T03:05:08.100Z,32.50
2022-12-27T03:07:39.470Z,28.70
2022-12-27T03:10:47.961Z,35.47
2022-12-27T03:13:37.757Z,31.40
2022-12-27T03:16:11.721Z,29.33
2022-12-27T03:18:48.186Z,28.52
2022-12-27T03:21:38.109Z,32.20
2022-12-27T03:24:24.316Z,27.02
2022-12-27T03:26:53.554Z,28.17
2022-12-27T03:29:40.058Z,28.58
2022-12-27T03:32:26.860Z,29.45
2022-12-27T03:34:57.352Z,27.20
2022-12-27T03:37:45.423Z,27.40
2022-12-27T03:40:18.282Z,25.92
2022-12-27T03:43:07.332Z,28.40
2022-12-27T03:45:58.444Z,19.10
2022-12-27T03:48:27.901Z,25.63
2022-12-27T03:51:05.204Z,25.85
2022-12-27T03:53:35.542Z,24.65
2022-12-27T03:56:04.449Z,22.63
2022-12-27T03:58:32.972Z,26.27
2022-12-27T04:01:01.783Z,25.80
2022-12-27T04:03:32.696Z,27.60
2022-12-27T04:06:03.014Z,26.20
2022-12-27T04:08:49.257Z,24.92
2022-12-27T04:11:35.068Z,25.98
2022-12-27T04:14:20.774Z,25.42
2022-12-27T04:17:06.566Z,24.13
2022-12-27T04:19:52.067Z,22.77
2022-12-27T04:22:39.438Z,25.40
2022-12-27T04:25:25.142Z,26.05
2022-12-27T04:28:10.856Z,28.75
2022-12-27T04:30:56.370Z,24.77
2022-12-27T04:33:41.892Z,24.88
2022-12-27T04:36:10.776Z,32.15
2022-12-27T04:38:40.774Z,31.50
2022-12-27T04:41:26.591Z,41.90
2022-12-27T04:44:12.064Z,30.10
2022-12-27T04:46:57.535Z,28.02
2022-12-27T04:49:44.707Z,21.45
2022-12-27T04:52:31.925Z,24.15
2022-12-27T04:55:02.742Z,25.50
2022-12-27T04:57:31.207Z,20.42
2022-12-27T05:00:16.763Z,19.50
2022-12-27T05:02:45.366Z,15.98
2022-12-27T05:05:13.959Z,19.58
2022-12-27T05:08:00.044Z,15.70
2022-12-27T05:10:47.385Z,13.32
2022-12-27T05:13:34.565Z,11.68
2022-12-27T05:16:03.521Z,13.27
2022-12-27T05:18:35.041Z,14.30
2022-12-27T05:21:03.960Z,12.10
2022-12-27T05:23:50.033Z,11.60
2022-12-27T05:26:23.583Z,12.85
2022-12-27T05:28:52.482Z,11.73
2022-12-27T05:31:21.319Z,10.40
2022-12-27T05:33:50.211Z,10.40
2022-12-27T05:36:21.148Z,11.48
2022-12-27T05:38:50.224Z,12.27
2022-12-27T05:41:19.241Z,12.50
2022-12-27T05:43:49.393Z,13.07
2022-12-27T05:46:18.502Z,12.70
2022-12-27T05:48:47.468Z,10.50
2022-12-27T05:51:16.973Z,12.75
2022-12-27T05:53:46.021Z,10.05
2022-12-27T05:56:15.636Z,9.77
2022-12-27T05:58:44.541Z,13.38
2022-12-27T06:01:15.986Z,11.30
2022-12-27T06:03:45.240Z,15.52
2022-12-27T06:06:14.387Z,11.95
2022-12-27T06:08:43.137Z,11.55
2022-12-27T06:11:13.052Z,13.85
2022-12-27T06:13:42.082Z,15.52
2022-12-27T06:16:11.878Z,14.60
2022-12-27T06:18:43.556Z,13.90
2022-12-27T06:21:13.400Z,20.20
2022-12-27T06:23:44.767Z,16.55
2022-12-27T06:26:13.913Z,15.20
2022-12-27T06:28:42.669Z,14.48
2022-12-27T06:31:11.530Z,15.63
2022-12-27T06:33:40.266Z,14.93
2022-12-27T06:36:10.772Z,13.27
2022-12-27T06:38:39.851Z,12.50
2022-12-27T06:41:09.894Z,14.18
2022-12-27T06:43:38.702Z,15.45
2022-12-27T06:46:10.305Z,14.15
2022-12-27T06:48:41.992Z,14.02
2022-12-27T06:51:12.779Z,15.38
2022-12-27T06:53:41.888Z,16.30
2022-12-27T06:56:11.122Z,18.52
2022-12-27T06:58:39.730Z,14.07
2022-12-27T07:01:10.034Z,16.00
2022-12-27T07:03:38.797Z,16.63
2022-12-27T07:06:08.307Z,16.23
2022-12-27T07:08:38.069Z,17.95
2022-12-27T07:11:07.572Z,17.70
2022-12-27T07:13:36.578Z,18.27
2022-12-27T07:16:05.250Z,18.40
2022-12-27T07:18:34.233Z,18.45
2022-12-27T07:21:05.170Z,14.90
2022-12-27T07:23:34.238Z,18.70
2022-12-27T07:26:07.999Z,14.60
2022-12-27T07:28:36.983Z,16.48
2022-12-27T07:31:08.095Z,16.38
2022-12-27T07:33:36.503Z,11.75
2022-12-27T07:36:05.534Z,11.68
2022-12-27T07:38:34.032Z,16.05
2022-12-27T07:41:03.321Z,15.52
2022-12-27T07:43:33.956Z,13.95
2022-12-27T07:46:06.686Z,15.82
2022-12-27T07:48:35.578Z,12.75
2022-12-27T07:51:04.432Z,14.10
2022-12-27T07:53:33.487Z,13.25
2022-12-27T07:56:06.474Z,14.40
2022-12-27T07:58:38.763Z,13.95
2022-12-27T08:01:07.984Z,16.30
2022-12-27T08:03:39.820Z,12.00
2022-12-27T08:06:09.754Z,13.70
2022-12-27T08:08:42.600Z,14.15
2022-12-27T08:11:13.364Z,11.45
2022-12-27T08:13:43.655Z,10.75
2022-12-27T08:16:16.462Z,12.13
2022-12-27T08:18:44.693Z,11.00
2022-12-27T08:21:12.952Z,11.80
2022-12-27T08:23:41.464Z,9.35
2022-12-27T08:26:10.488Z,10.35
2022-12-27T08:28:39.013Z,9.35
2022-12-27T08:31:12.879Z,11.35
2022-12-27T08:33:42.110Z,10.65
2022-12-27T08:36:44.773Z,7.85
2022-12-27T08:39:02.457Z,10.23
2022-12-27T08:41:32.323Z,7.88
2022-12-27T08:44:01.242Z,7.95
2022-12-27T08:46:31.485Z,6.88
2022-12-27T08:48:59.878Z,10.10
2022-12-27T08:51:35.865Z,8.00
2022-12-27T08:54:09.541Z,6.38
2022-12-27T08:56:37.859Z,6.13
2022-12-27T08:59:06.718Z,6.30
2022-12-27T09:01:37.209Z,7.95
2022-12-27T09:04:06.529Z,8.20
2022-12-27T09:06:35.293Z,6.28
2022-12-27T09:09:04.097Z,4.97
2022-12-27T09:11:33.585Z,7.85
2022-12-27T09:14:02.836Z,7.10
2022-12-27T09:16:31.682Z,6.35
2022-12-27T09:19:01.874Z,6.82
2022-12-27T09:21:32.621Z,5.93
2022-12-27T09:24:08.393Z,7.38
2022-12-27T09:26:36.954Z,8.32
2022-12-27T09:29:05.468Z,7.05
2022-12-27T09:31:34.064Z,6.18
2022-12-27T09:34:04.358Z,5.95
2022-12-27T09:36:32.881Z,6.60
2022-12-27T09:39:01.424Z,6.30
2022-12-27T09:42:44.531Z,6.60
2022-12-27T09:44:32.064Z,5.43
2022-12-27T09:47:03.512Z,8.30
2022-12-27T09:49:35.122Z,4.82
2022-12-27T09:52:07.729Z,5.35
2022-12-27T09:54:38.748Z,4.25
2022-12-27T09:57:19.968Z,6.05
2022-12-27T09:59:50.617Z,4.47
2022-12-27T10:02:22.071Z,4.03
2022-12-27T10:05:19.133Z,2.97
2022-12-27T10:07:45.238Z,3.65
2022-12-27T10:10:19.037Z,3.20
2022-12-27T10:13:03.294Z,2.38
2022-12-27T10:15:35.761Z,2.05
2022-12-27T10:18:11.801Z,2.78
2022-12-27T10:20:50.888Z,2.83
2022-12-27T10:23:21.960Z,3.42
2022-12-27T10:25:52.057Z,2.42
2022-12-27T10:28:27.047Z,3.60
2022-12-27T10:30:55.519Z,8.50
2022-12-27T10:33:27.582Z,6.10
2022-12-27T10:35:58.176Z,4.78
2022-12-27T10:38:27.000Z,3.45
2022-12-27T10:40:59.115Z,4.20
2022-12-27T10:43:32.094Z,3.97
2022-12-27T10:46:12.236Z,2.83
2022-12-27T10:49:11.187Z,1.92
2022-12-27T10:51:36.493Z,2.58
2022-12-27T10:54:05.757Z,1.90
2022-12-27T10:56:38.424Z,1.58
2022-12-27T10:59:09.122Z,1.27
2022-12-27T11:01:37.534Z,3.00
2022-12-27T11:04:16.121Z,2.53
2022-12-27T11:06:51.716Z,1.95
2022-12-27T11:09:21.902Z,1.67
2022-12-27T11:11:50.627Z,2.28
2022-12-27T11:14:20.264Z,1.45
2022-12-27T11:16:49.459Z,1.73
2022-12-27T11:19:25.087Z,3.33
2022-12-27T11:21:56.257Z,1.58
2022-12-27T11:24:24.785Z,2.33
2022-12-27T11:26:54.525Z,2.60
2022-12-27T11:29:25.967Z,2.30
2022-12-27T11:31:54.854Z,1.80
2022-12-27T11:34:27.022Z,2.10
2022-12-27T11:37:04.155Z,18.15
2022-12-27T11:39:42.141Z,2.28
2022-12-27T11:42:15.496Z,3.42
2022-12-27T11:44:45.514Z,1.95
2022-12-27T11:47:17.533Z,4.68
2022-12-27T11:49:51.763Z,3.25
2022-12-27T11:52:36.910Z,4.80
2022-12-27T11:55:16.359Z,2.80
2022-12-27T11:58:00.585Z,2.33
2022-12-27T12:00:36.456Z,3.45
2022-12-27T12:03:17.877Z,1.92
2022-12-27T12:05:59.079Z,3.15
2022-12-27T12:08:40.572Z,4.00
2022-12-27T12:11:13.700Z,4.07
2022-12-27T12:13:53.880Z,1.98
2022-12-27T12:16:37.474Z,2.75
2022-12-27T12:19:14.368Z,2.13
2022-12-27T12:21:49.390Z,2.75
2022-12-27T12:24:36.501Z,2.72
2022-12-27T12:27:13.851Z,3.45
2022-12-27T12:29:56.456Z,2.90
2022-12-27T12:32:34.602Z,2.63
2022-12-27T12:35:18.016Z,3.38
2022-12-27T12:38:03.089Z,4.28
2022-12-27T12:40:37.429Z,6.13
2022-12-27T12:43:13.453Z,3.75
2022-12-27T12:45:53.176Z,4.32
2022-12-27T12:48:36.446Z,3.17
2022-12-27T12:51:11.855Z,4.65
2022-12-27T12:53:46.594Z,3.22
2022-12-27T12:56:25.682Z,2.13
2022-12-27T12:59:00.130Z,2.25
2022-12-27T13:01:35.147Z,4.00
2022-12-27T13:04:09.544Z,2.47
2022-12-27T13:06:44.311Z,3.25
2022-12-27T13:09:18.594Z,1.88
2022-12-27T13:11:54.854Z,3.63
2022-12-27T13:14:37.591Z,2.65
2022-12-27T13:17:09.725Z,2.30
2022-12-27T13:19:45.742Z,3.55
2022-12-27T13:22:17.839Z,4.10
2022-12-27T13:25:00.552Z,3.45
2022-12-27T13:27:32.663Z,2.63
2022-12-27T13:30:07.483Z,3.65
2022-12-27T13:32:46.277Z,4.53
2022-12-27T13:35:24.133Z,2.92
2022-12-27T13:37:56.639Z,2.03
2022-12-27T13:40:32.301Z,3.00
2022-12-27T13:43:13.915Z,3.77
2022-12-27T13:45:54.302Z,2.33
2022-12-27T13:48:35.909Z,3.00
2022-12-27T13:51:08.459Z,2.92
2022-12-27T13:53:52.909Z,4.28
2022-12-27T13:56:53.431Z,2.05
2022-12-27T13:59:27.171Z,5.10
2022-12-27T14:02:22.054Z,3.72
2022-12-27T14:05:00.002Z,3.50
2022-12-27T14:07:35.675Z,4.13
2022-12-27T14:10:23.447Z,4.50
2022-12-27T14:13:04.596Z,3.20
2022-12-27T14:15:59.938Z,3.53
2022-12-27T14:18:43.156Z,3.92
2022-12-27T14:21:19.971Z,3.63
2022-12-27T14:26:33.895Z,2.42
2022-12-27T14:29:19.730Z,3.33
2022-12-27T14:32:15.057Z,5.10
2022-12-27T14:34:59.621Z,2.63
2022-12-27T14:37:55.762Z,3.53
2022-12-27T14:40:43.619Z,4.17
2022-12-27T14:43:40.563Z,4.95
2022-12-27T14:46:26.701Z,7.47
2022-12-27T14:49:09.769Z,7.78
2022-12-27T14:52:00.732Z,4.78
2022-12-27T14:54:55.443Z,6.28
2022-12-27T14:57:34.105Z,4.60
2022-12-27T15:00:04.936Z,3.38
2022-12-27T15:02:46.597Z,5.47
2022-12-27T15:05:21.342Z,5.20
2022-12-27T15:08:02.820Z,4.18
2022-12-27T15:10:41.649Z,4.30
2022-12-27T15:13:18.481Z,6.07
2022-12-27T15:18:27.329Z,7.32
2022-12-27T15:21:10.347Z,2.97
2022-12-27T15:23:49.147Z,3.30
2022-12-27T15:26:20.457Z,2.33
2022-12-27T15:29:03.683Z,3.92
2022-12-27T15:31:40.409Z,4.70
2022-12-27T15:34:16.855Z,3.80
2022-12-27T15:36:47.297Z,4.72
2022-12-27T15:39:35.900Z,5.55
2022-12-27T15:42:15.463Z,3.20
2022-12-27T15:44:52.928Z,5.50
2022-12-27T15:47:30.951Z,2.95
2022-12-27T15:50:20.199Z,5.40
2022-12-27T15:52:58.752Z,5.03
2022-12-27T15:55:35.730Z,5.93
2022-12-27T15:58:09.660Z,6.05
2022-12-27T16:00:38.548Z,5.13
2022-12-27T16:03:30.417Z,3.55
2022-12-27T16:05:58.882Z,4.88
2022-12-27T16:08:35.277Z,3.60
2022-12-27T16:11:05.443Z,4.32
2022-12-27T16:13:41.903Z,5.10
2022-12-27T16:16:12.523Z,3.40
2022-12-27T16:18:58.323Z,3.53
2022-12-27T16:21:29.316Z,4.27
2022-12-27T16:24:00.814Z,3.42
2022-12-27T16:26:30.273Z,4.75
2022-12-27T16:29:00.506Z,5.07
2022-12-27T16:31:33.394Z,4.53
2022-12-27T16:34:11.875Z,5.70
2022-12-27T16:36:49.105Z,7.72
2022-12-27T16:39:30.334Z,7.82
2022-12-27T16:42:01.821Z,3.05
2022-12-27T16:44:38.211Z,5.78
2022-12-27T16:47:13.754Z,2.60
2022-12-27T16:49:49.279Z,7.03
2022-12-27T16:52:29.257Z,7.45
2022-12-27T16:55:03.880Z,8.82
2022-12-27T16:57:41.002Z,7.43
2022-12-27T17:00:27.421Z,8.88
2022-12-27T17:02:55.816Z,5.13
2022-12-27T17:05:58.649Z,6.00
2022-12-27T17:08:34.261Z,5.53
2022-12-27T17:11:27.798Z,6.82
2022-12-27T17:13:57.352Z,6.13
2022-12-27T17:16:28.000Z,5.45
2022-12-27T17:18:58.017Z,5.47
2022-12-27T17:21:30.456Z,4.95
2022-12-27T17:24:01.762Z,5.47
2022-12-27T17:26:39.552Z,7.82
2022-12-27T17:29:17.375Z,7.03
2022-12-27T17:31:49.356Z,7.20
2022-12-27T17:34:20.996Z,7.40
2022-12-27T17:36:56.164Z,6.15
2022-12-27T17:39:33.001Z,6.88
2022-12-27T17:42:22.856Z,7.78
2022-12-27T17:44:58.474Z,6.82
2022-12-27T17:47:32.871Z,8.00
2022-12-27T17:50:02.816Z,8.30
2022-12-27T17:52:48.432Z,10.57
2022-12-27T17:55:37.987Z,14.27
2022-12-27T17:58:07.895Z,11.05
2022-12-27T18:00:37.924Z,15.45
2022-12-27T18:03:08.605Z,11.48
2022-12-27T18:05:38.520Z,11.98
2022-12-27T18:08:08.785Z,9.80
2022-12-27T18:10:38.680Z,9.38
2022-12-27T18:13:08.101Z,5.43
2022-12-27T18:15:38.234Z,5.78
2022-12-27T18:18:09.742Z,7.00
2022-12-27T18:20:39.248Z,6.88
2022-12-27T18:23:18.788Z,6.90
2022-12-27T18:25:56.133Z,5.05
2022-12-27T18:31:02.111Z,6.00
2022-12-27T18:33:33.599Z,8.13
2022-12-27T18:36:02.996Z,7.32
2022-12-27T18:38:34.609Z,6.97
2022-12-27T18:41:06.275Z,7.57
2022-12-27T18:43:35.236Z,4.50
2022-12-27T18:46:04.329Z,6.53
2022-12-27T18:48:38.376Z,6.13
2022-12-27T18:51:07.005Z,6.85
2022-12-27T18:53:37.903Z,6.60
2022-12-27T18:56:26.875Z,6.20
2022-12-27T18:59:02.073Z,8.50
2022-12-27T19:01:32.480Z,6.28
2022-12-27T19:04:18.655Z,5.43
2022-12-27T19:06:56.340Z,6.15
2022-12-27T19:09:25.389Z,4.22
2022-12-27T19:11:57.074Z,8.50
2022-12-27T19:14:27.242Z,9.95
2022-12-27T19:17:08.752Z,8.35
2022-12-27T19:19:39.614Z,3.20
2022-12-27T19:22:22.818Z,5.38
2022-12-27T19:24:58.553Z,6.03
2022-12-27T19:27:28.936Z,6.70
2022-12-27T19:29:57.469Z,6.68
2022-12-27T19:32:30.124Z,6.97
2022-12-27T19:34:59.407Z,7.82
2022-12-27T19:37:28.452Z,7.82
2022-12-27T19:39:57.761Z,8.38
2022-12-27T19:42:28.173Z,6.13
2022-12-27T19:44:58.390Z,7.70
2022-12-27T19:47:32.069Z,9.05
2022-12-27T19:50:00.502Z,10.60
2022-12-27T19:52:29.222Z,8.88
2022-12-27T19:55:01.603Z,4.75
2022-12-27T19:57:31.101Z,9.07
2022-12-27T20:00:05.350Z,4.35
2022-12-27T20:02:38.342Z,10.70
2022-12-27T20:05:07.320Z,8.30
2022-12-27T20:07:39.219Z,6.28
2022-12-27T20:10:08.140Z,6.10
2022-12-27T20:12:36.848Z,7.95
2022-12-27T20:15:07.864Z,11.35
2022-12-27T20:17:39.681Z,8.65
2022-12-27T20:20:13.614Z,6.38
2022-12-27T20:22:42.395Z,9.20
2022-12-27T20:25:11.500Z,11.70
2022-12-27T20:27:41.228Z,6.38
2022-12-27T20:30:12.469Z,6.15
2022-12-27T20:32:40.640Z,7.10
2022-12-27T20:35:09.198Z,7.70
2022-12-27T20:37:37.842Z,10.07
2022-12-27T20:40:07.608Z,10.18
2022-12-27T20:42:36.647Z,9.20
2022-12-27T20:45:07.913Z,16.05
2022-12-27T20:47:37.880Z,12.20
2022-12-27T20:50:06.372Z,34.70
2022-12-27T20:52:38.796Z,11.20
2022-12-27T20:55:07.545Z,8.70
2022-12-27T20:57:35.997Z,8.38
2022-12-27T21:00:06.959Z,7.63
2022-12-27T21:02:36.097Z,11.45
2022-12-27T21:05:07.164Z,7.30
2022-12-27T21:07:35.502Z,4.82
2022-12-27T21:10:06.173Z,7.45
2022-12-27T21:12:35.549Z,8.02
2022-12-27T21:15:03.751Z,8.77
2022-12-27T21:17:32.667Z,10.45
2022-12-27T21:20:04.277Z,9.52
2022-12-27T21:22:34.142Z,10.15
2022-12-27T21:25:02.644Z,7.97
2022-12-27T21:27:31.110Z,8.10
2022-12-27T21:29:59.689Z,8.93
2022-12-27T21:32:31.894Z,8.38
2022-12-27T21:35:00.191Z,8.82
2022-12-27T21:37:28.443Z,11.40
2022-12-27T21:39:58.080Z,8.55
2022-12-27T21:42:26.687Z,7.90
2022-12-27T21:44:55.624Z,6.97
2022-12-27T21:47:24.095Z,9.02
2022-12-27T21:49:52.671Z,7.65
2022-12-27T21:52:21.339Z,8.40
2022-12-27T21:54:49.488Z,7.28
2022-12-27T21:57:19.185Z,8.23
2022-12-27T21:59:47.548Z,7.57
2022-12-27T22:02:16.110Z,7.40
2022-12-27T22:04:44.348Z,8.68
2022-12-27T22:07:13.260Z,8.95
2022-12-27T22:09:44.592Z,7.47
2022-12-27T22:12:13.708Z,6.90
2022-12-27T22:14:44.400Z,6.90
2022-12-27T22:17:12.932Z,6.22
2022-12-27T22:19:41.452Z,7.20
2022-12-27T22:22:09.535Z,8.95
2022-12-27T22:24:37.971Z,6.95
2022-12-27T22:27:06.112Z,9.00
2022-12-27T22:29:35.505Z,6.38
2022-12-27T22:32:05.833Z,6.78
2022-12-27T22:34:34.166Z,12.65
2022-12-27T22:37:02.539Z,8.55
2022-12-27T22:39:31.180Z,8.77
2022-12-27T22:41:59.740Z,7.35
2022-12-27T22:44:28.986Z,6.85
2022-12-27T22:47:25.244Z,13.15
2022-12-27T22:49:49.171Z,14.82
2022-12-27T22:52:18.487Z,22.65
2022-12-27T22:55:05.687Z,11.55
2022-12-27T22:57:35.354Z,10.35
2022-12-27T23:00:05.839Z,8.38
2022-12-27T23:02:34.426Z,8.85
2022-12-27T23:05:04.219Z,7.95
2022-12-27T23:08:03.394Z,6.57
2022-12-27T23:10:21.257Z,5.75
2022-12-27T23:12:50.167Z,8.65
2022-12-27T23:15:18.440Z,6.45
2022-12-27T23:17:47.067Z,8.45
2022-12-27T23:20:16.904Z,8.05
2022-12-27T23:22:45.131Z,7.97
2022-12-27T23:25:13.225Z,8.38
2022-12-27T23:27:41.545Z,8.20
2022-12-27T23:30:10.353Z,8.70
2022-12-27T23:32:38.609Z,10.02
2022-12-27T23:35:07.027Z,8.13
2022-12-27T23:37:36.653Z,9.65
2022-12-27T23:40:08.687Z,7.88
2022-12-27T23:42:37.384Z,7.60
2022-12-27T23:45:06.259Z,11.77
2022-12-27T23:47:34.476Z,10.02
2022-12-27T23:50:02.636Z,9.38
2022-12-27T23:52:31.029Z,11.85
2022-12-27T23:55:00.997Z,9.50
2022-12-27T23:57:29.615Z,9.73
2022-12-27T23:59:59.878Z,9.93
